createdAt,value
2018-08-24T00:02:20.294Z,13.40
2018-08-24T00:04:48.983Z,13.30
2018-08-24T00:07:17.726Z,12.30
2018-08-24T00:09:47.393Z,12.20
2018-08-24T00:12:16.090Z,12.37
2018-08-24T00:14:44.728Z,12.80
2018-08-24T00:17:18.576Z,12.73
2018-08-24T00:19:47.174Z,12.23
2018-08-24T00:22:15.804Z,12.57
2018-08-24T00:24:44.432Z,12.73
2018-08-24T00:27:13.150Z,13.27
2018-08-24T00:29:41.768Z,13.53
2018-08-24T00:32:10.434Z,12.57
2018-08-24T00:34:39.069Z,12.77
2018-08-24T00:37:07.769Z,12.77
2018-08-24T00:39:36.513Z,12.57
2018-08-24T00:42:05.740Z,13.00
2018-08-24T00:44:34.340Z,12.93
2018-08-24T00:47:03.112Z,12.97
2018-08-24T00:49:32.062Z,13.27
2018-08-24T00:52:00.627Z,14.10
2018-08-24T00:54:29.202Z,13.03
2018-08-24T00:56:57.870Z,12.90
2018-08-24T00:59:26.482Z,13.93
2018-08-24T01:01:55.124Z,14.37
2018-08-24T01:04:29.079Z,14.03
2018-08-24T01:06:57.669Z,15.70
2018-08-24T01:09:26.257Z,14.83
2018-08-24T01:12:00.253Z,15.80
2018-08-24T01:14:28.877Z,16.07
2018-08-24T01:17:02.859Z,16.70
2018-08-24T01:19:31.501Z,17.33
2018-08-24T01:22:00.111Z,19.23
2018-08-24T01:24:30.655Z,18.73
2018-08-24T01:27:02.719Z,19.10
2018-08-24T01:29:32.756Z,19.30
2018-08-24T01:32:01.782Z,19.13
2018-08-24T01:34:30.432Z,20.20
2018-08-24T01:36:59.051Z,20.20
2018-08-24T01:39:27.674Z,20.17
2018-08-24T01:41:56.344Z,19.33
2018-08-24T01:44:25.170Z,20.13
2018-08-24T01:46:53.876Z,21.67
2018-08-24T01:49:22.472Z,20.90
2018-08-24T01:51:51.172Z,20.97
2018-08-24T01:54:19.770Z,20.57
2018-08-24T01:56:48.418Z,21.17
2018-08-24T01:59:17.051Z,22.13
2018-08-24T02:01:45.644Z,21.47
2018-08-24T02:04:14.317Z,21.73
2018-08-24T02:06:42.969Z,20.57
2018-08-24T02:09:12.869Z,21.60
2018-08-24T02:11:41.495Z,22.00
2018-08-24T02:14:10.877Z,21.70
2018-08-24T02:16:40.920Z,20.17
2018-08-24T02:19:12.111Z,21.77
2018-08-24T02:21:46.162Z,21.87
2018-08-24T02:24:15.164Z,21.30
2018-08-24T02:26:44.686Z,21.40
2018-08-24T02:29:13.439Z,21.57
2018-08-24T02:31:47.535Z,22.97
2018-08-24T02:34:16.143Z,21.13
2018-08-24T02:36:45.282Z,23.17
2018-08-24T02:39:14.995Z,22.90
2018-08-24T02:41:43.894Z,21.80
2018-08-24T02:44:12.887Z,22.47
2018-08-24T02:46:42.623Z,21.83
2018-08-24T02:49:11.417Z,22.37
2018-08-24T02:51:40.028Z,22.43
2018-08-24T02:54:08.617Z,22.90
2018-08-24T02:56:37.239Z,22.60
2018-08-24T02:59:05.967Z,22.27
2018-08-24T03:01:34.566Z,21.63
2018-08-24T03:04:03.188Z,21.90
2018-08-24T03:06:31.854Z,20.90
2018-08-24T03:09:00.420Z,20.80
2018-08-24T03:11:29.113Z,22.27
2018-08-24T03:13:57.700Z,22.50
2018-08-24T03:16:26.382Z,21.73
2018-08-24T03:18:54.898Z,22.70
2018-08-24T03:21:23.456Z,22.67
2018-08-24T03:23:52.042Z,22.87
2018-08-24T03:26:20.675Z,23.40
2018-08-24T03:28:49.238Z,24.03
2018-08-24T03:31:17.873Z,24.77
2018-08-24T03:33:46.457Z,25.70
2018-08-24T03:36:15.023Z,24.83
2018-08-24T03:38:43.633Z,24.03
2018-08-24T03:41:12.227Z,24.93
2018-08-24T03:43:41.001Z,24.37
2018-08-24T03:46:09.652Z,25.70
2018-08-24T03:48:38.222Z,25.27
2018-08-24T03:51:06.833Z,25.10
2018-08-24T03:53:35.396Z,26.40
2018-08-24T03:56:04.018Z,27.50
2018-08-24T03:58:32.652Z,26.77
2018-08-24T04:01:01.334Z,25.57
2018-08-24T04:03:30.451Z,26.77
2018-08-24T04:05:59.064Z,24.33
2018-08-24T04:08:27.650Z,25.60
2018-08-24T04:10:56.243Z,25.53
2018-08-24T04:13:24.846Z,23.87
2018-08-24T04:15:53.551Z,23.57
2018-08-24T04:18:22.160Z,24.07
2018-08-24T04:20:50.713Z,24.17
2018-08-24T04:23:19.292Z,22.60
2018-08-24T04:25:47.842Z,23.70
2018-08-24T04:28:16.403Z,22.40
2018-08-24T04:30:45.047Z,22.03
2018-08-24T04:33:13.608Z,22.17
2018-08-24T04:35:42.235Z,23.00
2018-08-24T04:38:10.833Z,23.27
2018-08-24T04:40:39.420Z,22.80
2018-08-24T04:43:08.021Z,22.87
2018-08-24T04:45:36.682Z,23.17
2018-08-24T04:48:05.286Z,22.70
2018-08-24T04:50:33.872Z,23.80
2018-08-24T04:53:02.522Z,23.47
2018-08-24T04:55:31.148Z,23.73
2018-08-24T04:57:59.802Z,22.90
2018-08-24T05:00:28.444Z,22.27
2018-08-24T05:02:57.099Z,22.97
2018-08-24T05:05:25.645Z,22.90
2018-08-24T05:07:54.311Z,21.20
2018-08-24T05:10:22.994Z,22.63
2018-08-24T05:12:51.642Z,22.07
2018-08-24T05:15:20.229Z,21.83
2018-08-24T05:17:48.888Z,21.97
2018-08-24T05:20:17.483Z,20.47
2018-08-24T05:22:46.144Z,20.33
2018-08-24T05:25:15.813Z,19.87
2018-08-24T05:27:44.439Z,19.53
2018-08-24T05:30:13.122Z,19.40
2018-08-24T05:32:41.781Z,17.60
2018-08-24T05:35:10.388Z,15.13
2018-08-24T05:37:38.974Z,14.50
2018-08-24T05:40:07.612Z,13.80
2018-08-24T05:42:36.230Z,11.90
2018-08-24T05:45:05.324Z,9.00
2018-08-24T05:47:33.864Z,7.57
2018-08-24T05:50:03.963Z,6.70
2018-08-24T05:52:32.498Z,7.27
2018-08-24T05:55:01.048Z,6.97
2018-08-24T05:57:29.621Z,7.50
2018-08-24T05:59:58.269Z,7.90
2018-08-24T06:02:26.896Z,7.13
2018-08-24T06:04:55.731Z,6.70
2018-08-24T06:07:24.518Z,6.10
2018-08-24T06:09:53.128Z,5.67
2018-08-24T06:12:21.716Z,5.80
2018-08-24T06:14:50.382Z,5.40
2018-08-24T06:17:24.212Z,5.27
2018-08-24T06:19:52.792Z,4.43
2018-08-24T06:22:21.464Z,5.17
2018-08-24T06:24:50.045Z,4.40
2018-08-24T06:27:18.568Z,4.03
2018-08-24T06:29:47.161Z,4.63
2018-08-24T06:32:15.779Z,4.60
2018-08-24T06:34:44.459Z,5.17
2018-08-24T06:37:13.149Z,4.63
2018-08-24T06:39:41.806Z,5.03
2018-08-24T06:42:10.391Z,4.83
2018-08-24T06:44:39.002Z,4.50
2018-08-24T06:47:07.605Z,3.97
2018-08-24T06:49:36.182Z,4.30
2018-08-24T06:52:04.762Z,4.40
2018-08-24T06:54:33.354Z,4.17
2018-08-24T06:57:02.022Z,4.20
2018-08-24T06:59:30.585Z,5.90
2018-08-24T07:01:59.520Z,5.20
2018-08-24T07:04:28.067Z,5.87
2018-08-24T07:06:56.679Z,5.97
2018-08-24T07:09:25.285Z,4.60
2018-08-24T07:11:53.879Z,4.23
2018-08-24T07:14:22.432Z,3.37
2018-08-24T07:16:55.207Z,3.20
2018-08-24T07:19:23.883Z,3.10
2018-08-24T07:21:52.421Z,3.50
2018-08-24T07:24:20.997Z,3.30
2018-08-24T07:26:49.641Z,4.00
2018-08-24T07:29:18.200Z,3.60
2018-08-24T07:31:46.804Z,3.07
2018-08-24T07:34:15.429Z,2.83
2018-08-24T07:36:43.992Z,3.10
2018-08-24T07:39:14.427Z,2.90
2018-08-24T07:41:43.334Z,3.50
2018-08-24T07:44:12.363Z,3.23
2018-08-24T07:46:41.115Z,2.93
2018-08-24T07:49:10.084Z,2.17
2018-08-24T07:51:39.276Z,2.53
2018-08-24T07:54:07.810Z,2.57
2018-08-24T07:56:36.380Z,2.53
2018-08-24T07:59:05.005Z,2.60
2018-08-24T08:01:33.778Z,2.30
2018-08-24T08:04:03.648Z,2.40
2018-08-24T08:06:32.242Z,2.30
2018-08-24T08:09:00.902Z,2.00
2018-08-24T08:11:35.640Z,2.10
2018-08-24T08:14:04.385Z,2.07
2018-08-24T08:16:32.946Z,2.20
2018-08-24T08:19:01.566Z,3.60
2018-08-24T08:21:30.496Z,3.47
2018-08-24T08:23:59.186Z,4.23
2018-08-24T08:26:27.829Z,2.23
2018-08-24T08:28:56.557Z,2.00
2018-08-24T08:31:25.145Z,2.90
2018-08-24T08:33:53.735Z,2.97
2018-08-24T08:36:22.326Z,2.20
2018-08-24T08:38:50.981Z,2.13
2018-08-24T08:41:19.605Z,2.13
2018-08-24T08:43:48.201Z,2.43
2018-08-24T08:46:16.754Z,2.10
2018-08-24T08:48:45.347Z,2.17
2018-08-24T08:51:14.106Z,2.63
2018-08-24T08:53:42.664Z,2.33
2018-08-24T08:56:11.290Z,1.80
2018-08-24T08:58:39.907Z,2.10
2018-08-24T09:01:08.528Z,2.50
2018-08-24T09:03:37.142Z,2.83
2018-08-24T09:06:06.231Z,2.40
2018-08-24T09:08:34.673Z,2.50
2018-08-24T09:11:03.280Z,2.33
2018-08-24T09:13:31.903Z,2.90
2018-08-24T09:16:00.481Z,2.90
2018-08-24T09:18:34.517Z,2.83
2018-08-24T09:21:08.452Z,3.57
2018-08-24T09:23:42.351Z,2.83
2018-08-24T09:26:16.351Z,2.50
2018-08-24T09:28:45.761Z,2.10
2018-08-24T09:31:19.507Z,2.33
2018-08-24T09:33:48.293Z,2.10
2018-08-24T09:36:18.928Z,2.20
2018-08-24T09:38:48.310Z,1.87
2018-08-24T09:41:16.998Z,2.10
2018-08-24T09:43:50.926Z,1.90
2018-08-24T09:46:19.710Z,2.07
2018-08-24T09:49:57.407Z,2.00
2018-08-24T09:52:26.928Z,1.80
2018-08-24T09:54:56.016Z,1.77
2018-08-24T09:57:24.632Z,1.90
2018-08-24T09:59:53.140Z,2.10
2018-08-24T10:02:24.537Z,1.90
2018-08-24T10:04:58.440Z,2.40
2018-08-24T10:07:33.542Z,1.93
2018-08-24T10:10:02.812Z,1.63
2018-08-24T10:12:37.477Z,1.57
2018-08-24T10:15:09.952Z,1.80
2018-08-24T10:17:38.561Z,1.97
2018-08-24T10:20:07.532Z,1.53
2018-08-24T10:22:36.275Z,1.40
2018-08-24T10:25:04.952Z,1.37
2018-08-24T10:27:33.553Z,1.80
2018-08-24T10:30:02.259Z,1.40
2018-08-24T10:32:30.849Z,1.60
2018-08-24T10:34:59.458Z,1.60
2018-08-24T10:37:28.111Z,1.77
2018-08-24T10:39:56.685Z,1.70
2018-08-24T10:42:25.297Z,1.87
2018-08-24T10:44:53.865Z,1.53
2018-08-24T10:47:22.510Z,2.27
2018-08-24T10:49:51.030Z,1.70
2018-08-24T10:52:19.573Z,1.50
2018-08-24T10:54:48.247Z,1.83
2018-08-24T10:57:16.852Z,1.77
2018-08-24T10:59:45.437Z,1.70
2018-08-24T11:02:14.141Z,3.00
2018-08-24T11:04:42.769Z,2.00
2018-08-24T11:07:11.487Z,1.80
2018-08-24T11:09:40.106Z,1.97
2018-08-24T11:12:08.710Z,1.90
2018-08-24T11:14:37.302Z,1.90
2018-08-24T11:17:05.908Z,1.90
2018-08-24T11:19:34.498Z,1.90
2018-08-24T11:22:03.130Z,1.80
2018-08-24T11:24:31.710Z,1.50
2018-08-24T11:27:00.392Z,1.80
2018-08-24T11:29:29.021Z,1.60
2018-08-24T11:31:57.540Z,1.43
2018-08-24T11:34:26.120Z,1.50
2018-08-24T11:36:54.766Z,1.50
2018-08-24T11:39:23.397Z,1.63
2018-08-24T11:41:51.999Z,1.70
2018-08-24T11:44:20.576Z,1.70
2018-08-24T11:46:49.219Z,1.53
2018-08-24T11:49:17.842Z,3.43
2018-08-24T11:51:46.400Z,5.37
2018-08-24T11:54:15.102Z,2.23
2018-08-24T11:56:43.696Z,1.30
2018-08-24T11:59:12.435Z,2.00
2018-08-24T12:01:41.056Z,1.60
2018-08-24T12:04:09.713Z,1.43
2018-08-24T12:06:38.374Z,1.80
2018-08-24T12:09:08.524Z,1.90
2018-08-24T12:11:37.309Z,1.83
2018-08-24T12:14:05.908Z,1.87
2018-08-24T12:16:34.519Z,2.00
2018-08-24T12:19:03.152Z,2.27
2018-08-24T12:21:31.815Z,2.13
2018-08-24T12:24:00.486Z,1.93
2018-08-24T12:26:29.038Z,2.00
2018-08-24T12:28:57.622Z,2.27
2018-08-24T12:31:26.268Z,2.30
2018-08-24T12:33:54.946Z,1.90
2018-08-24T12:36:23.674Z,2.57
2018-08-24T12:38:52.506Z,2.30
2018-08-24T12:41:21.177Z,2.70
2018-08-24T12:43:49.743Z,1.93
2018-08-24T12:46:18.676Z,1.90
2018-08-24T12:48:47.633Z,2.23
2018-08-24T12:51:16.533Z,1.60
2018-08-24T12:53:45.602Z,1.60
2018-08-24T12:56:20.225Z,1.70
2018-08-24T12:58:49.855Z,1.97
2018-08-24T13:01:19.025Z,1.50
2018-08-24T13:03:47.702Z,2.37
2018-08-24T13:06:16.418Z,2.27
2018-08-24T13:08:45.450Z,1.97
2018-08-24T13:11:14.678Z,1.67
2018-08-24T13:13:43.465Z,2.17
2018-08-24T13:16:12.094Z,1.67
2018-08-24T13:18:41.074Z,1.50
2018-08-24T13:21:09.721Z,1.60
2018-08-24T13:23:38.361Z,1.77
2018-08-24T13:26:06.964Z,1.50
2018-08-24T13:28:36.756Z,1.53
2018-08-24T13:31:05.605Z,1.60
2018-08-24T13:33:34.424Z,1.47
2018-08-24T13:36:02.987Z,1.50
2018-08-24T13:38:31.851Z,1.63
2018-08-24T13:41:00.493Z,1.40
2018-08-24T13:43:29.107Z,1.60
2018-08-24T13:45:57.921Z,1.40
2018-08-24T13:48:26.535Z,1.30
2018-08-24T13:50:55.154Z,1.50
2018-08-24T13:53:23.829Z,2.60
2018-08-24T13:55:52.458Z,1.93
2018-08-24T13:58:21.137Z,1.87
2018-08-24T14:00:51.095Z,3.27
2018-08-24T14:03:19.742Z,2.73
2018-08-24T14:05:48.894Z,3.30
2018-08-24T14:08:17.829Z,2.20
2018-08-24T14:10:47.040Z,2.53
2018-08-24T14:13:15.657Z,1.53
2018-08-24T14:15:44.222Z,1.30
2018-08-24T14:18:17.733Z,1.67
2018-08-24T14:20:46.462Z,2.00
2018-08-24T14:23:15.053Z,1.63
2018-08-24T14:25:44.263Z,1.80
2018-08-24T14:28:13.424Z,2.20
2018-08-24T14:30:42.020Z,1.70
2018-08-24T14:33:10.693Z,1.30
2018-08-24T14:35:39.539Z,1.30
2018-08-24T14:38:09.470Z,1.07
2018-08-24T14:40:38.065Z,1.50
2018-08-24T14:43:06.958Z,1.37
2018-08-24T14:45:36.879Z,1.47
2018-08-24T14:48:06.027Z,1.67
2018-08-24T14:50:34.641Z,1.80
2018-08-24T14:53:03.818Z,1.40
2018-08-24T14:55:32.825Z,1.50
2018-08-24T14:58:01.446Z,1.53
2018-08-24T15:00:30.507Z,1.73
2018-08-24T15:02:59.394Z,1.43
2018-08-24T15:05:28.064Z,1.30
2018-08-24T15:07:57.694Z,1.40
2018-08-24T15:10:26.381Z,1.23
2018-08-24T15:12:55.305Z,1.70
2018-08-24T15:15:24.205Z,1.70
2018-08-24T15:17:52.909Z,1.40
2018-08-24T15:20:22.273Z,1.30
2018-08-24T15:22:51.367Z,1.47
2018-08-24T15:25:20.361Z,1.30
2018-08-24T15:27:48.961Z,1.20
2018-08-24T15:30:17.856Z,1.33
2018-08-24T15:32:46.519Z,1.40
2018-08-24T15:35:15.638Z,1.97
2018-08-24T15:37:44.413Z,2.70
2018-08-24T15:40:13.226Z,2.23
2018-08-24T15:42:42.228Z,2.00
2018-08-24T15:45:10.774Z,1.80
2018-08-24T15:47:39.936Z,1.77
2018-08-24T15:50:08.728Z,1.40
2018-08-24T15:52:37.606Z,1.57
2018-08-24T15:55:06.407Z,1.60
2018-08-24T15:57:35.071Z,1.63
2018-08-24T16:00:04.126Z,1.43
2018-08-24T16:02:32.756Z,1.30
2018-08-24T16:05:01.519Z,1.50
2018-08-24T16:07:30.913Z,1.40
2018-08-24T16:09:59.864Z,1.37
2018-08-24T16:12:29.033Z,1.30
2018-08-24T16:14:57.725Z,1.40
2018-08-24T16:17:26.538Z,1.50
2018-08-24T16:19:55.341Z,1.20
2018-08-24T16:22:24.861Z,1.40
2018-08-24T16:24:53.569Z,1.70
2018-08-24T16:27:23.944Z,1.30
2018-08-24T16:29:54.981Z,1.60
2018-08-24T16:32:23.879Z,1.30
2018-08-24T16:34:52.630Z,1.70
2018-08-24T16:37:21.398Z,1.47
2018-08-24T16:39:50.317Z,1.47
2018-08-24T16:42:19.984Z,1.53
2018-08-24T16:44:48.612Z,1.50
2018-08-24T16:47:18.203Z,1.70
2018-08-24T16:49:47.070Z,1.43
2018-08-24T16:52:15.898Z,1.40
2018-08-24T16:54:45.033Z,1.50
2018-08-24T16:57:13.728Z,1.40
2018-08-24T16:59:42.767Z,1.50
2018-08-24T17:02:11.406Z,1.30
2018-08-24T17:04:40.121Z,1.50
2018-08-24T17:07:08.741Z,1.50
2018-08-24T17:09:37.651Z,1.40
2018-08-24T17:12:06.650Z,1.30
2018-08-24T17:14:35.483Z,1.40
2018-08-24T17:17:04.482Z,1.40
2018-08-24T17:19:33.298Z,1.47
2018-08-24T17:22:01.954Z,1.40
2018-08-24T17:24:30.593Z,1.40
2018-08-24T17:26:59.467Z,1.50
2018-08-24T17:29:28.192Z,1.17
2018-08-24T17:31:57.051Z,1.30
2018-08-24T17:34:25.858Z,1.70
2018-08-24T17:36:54.535Z,1.40
2018-08-24T17:39:23.342Z,1.80
2018-08-24T17:41:52.033Z,2.30
2018-08-24T17:44:21.025Z,1.80
2018-08-24T17:46:49.691Z,2.50
2018-08-24T17:49:18.365Z,2.40
2018-08-24T17:51:47.019Z,1.53
2018-08-24T17:54:16.041Z,1.60
2018-08-24T17:56:44.727Z,1.50
2018-08-24T17:59:13.612Z,1.50
2018-08-24T18:01:42.275Z,1.40
2018-08-24T18:04:11.204Z,1.37
2018-08-24T18:06:39.834Z,1.53
2018-08-24T18:09:10.330Z,1.57
2018-08-24T18:11:40.934Z,1.63
2018-08-24T18:14:10.481Z,1.57
2018-08-24T18:16:39.215Z,1.63
2018-08-24T18:19:08.065Z,1.50
2018-08-24T18:21:36.894Z,1.67
2018-08-24T18:24:05.597Z,1.40
2018-08-24T18:26:34.561Z,1.60
2018-08-24T18:29:03.500Z,1.50
2018-08-24T18:31:32.417Z,1.40
2018-08-24T18:34:01.258Z,1.97
2018-08-24T18:36:29.981Z,1.93
2018-08-24T18:38:58.687Z,1.90
2018-08-24T18:41:27.725Z,1.70
2018-08-24T18:43:56.670Z,1.60
2018-08-24T18:46:25.610Z,1.77
2018-08-24T18:48:54.253Z,1.70
2018-08-24T18:51:23.170Z,1.77
2018-08-24T18:53:52.013Z,1.70
2018-08-24T18:56:20.853Z,1.80
2018-08-24T18:58:50.518Z,1.83
2018-08-24T19:01:19.485Z,1.80
2018-08-24T19:03:48.503Z,1.50
2018-08-24T19:06:17.533Z,1.60
2018-08-24T19:08:46.455Z,1.63
2018-08-24T19:11:20.499Z,1.70
2018-08-24T19:13:49.478Z,1.70
2018-08-24T19:16:18.238Z,1.70
2018-08-24T19:18:53.503Z,1.57
2018-08-24T19:21:27.533Z,1.53
2018-08-24T19:23:59.022Z,2.00
2018-08-24T19:26:30.371Z,1.87
2018-08-24T19:29:09.865Z,1.87
2018-08-24T19:31:42.176Z,1.80
2018-08-24T19:34:14.616Z,1.80
2018-08-24T19:36:46.744Z,1.77
2018-08-24T19:39:16.721Z,1.70
2018-08-24T19:41:50.638Z,1.60
2018-08-24T19:44:19.884Z,1.60
2018-08-24T19:46:50.925Z,1.87
2018-08-24T19:49:25.099Z,1.77
2018-08-24T19:51:55.835Z,1.83
2018-08-24T19:54:24.766Z,1.90
2018-08-24T19:56:54.733Z,2.33
2018-08-24T19:59:24.345Z,2.10
2018-08-24T20:01:55.013Z,2.07
2018-08-24T20:04:24.420Z,2.70
2018-08-24T20:06:59.374Z,2.43
2018-08-24T20:10:36.154Z,3.87
2018-08-24T20:13:09.792Z,4.03
2018-08-24T20:15:46.181Z,3.23
2018-08-24T20:18:20.171Z,3.37
2018-08-24T20:20:49.532Z,2.70
2018-08-24T20:23:21.010Z,2.70
2018-08-24T20:25:53.364Z,2.77
2018-08-24T20:28:23.195Z,2.50
2018-08-24T20:30:52.945Z,2.67
2018-08-24T20:33:21.776Z,2.70
2018-08-24T20:35:50.490Z,2.60
2018-08-24T20:38:19.306Z,2.67
2018-08-24T20:40:48.095Z,2.60
2018-08-24T20:43:16.859Z,2.60
2018-08-24T20:45:46.487Z,2.53
2018-08-24T20:48:15.566Z,2.80
2018-08-24T20:50:44.733Z,2.80
2018-08-24T20:53:13.622Z,2.73
2018-08-24T20:55:43.394Z,2.93
2018-08-24T20:58:12.703Z,2.33
2018-08-24T21:00:43.761Z,2.60
2018-08-24T21:03:13.792Z,2.10
2018-08-24T21:05:44.834Z,2.37
2018-08-24T21:08:14.560Z,2.80
2018-08-24T21:10:44.307Z,2.47
2018-08-24T21:13:17.102Z,2.50
2018-08-24T21:15:49.384Z,2.50
2018-08-24T21:18:20.656Z,3.00
2018-08-24T21:20:49.753Z,2.73
2018-08-24T21:23:19.621Z,2.30
2018-08-24T21:25:50.983Z,2.80
2018-08-24T21:28:21.465Z,2.40
2018-08-24T21:30:53.392Z,2.60
2018-08-24T21:33:23.987Z,2.50
2018-08-24T21:35:53.868Z,2.40
2018-08-24T21:38:24.190Z,2.57
2018-08-24T21:40:54.604Z,2.53
2018-08-24T21:43:24.348Z,2.30
2018-08-24T21:45:55.602Z,2.23
2018-08-24T21:48:26.967Z,2.00
2018-08-24T21:50:56.593Z,2.43
2018-08-24T21:53:25.474Z,2.30
2018-08-24T21:55:56.114Z,2.20
2018-08-24T21:58:25.863Z,2.10
2018-08-24T22:00:54.801Z,1.90
2018-08-24T22:03:23.598Z,1.90
2018-08-24T22:05:52.459Z,2.30
2018-08-24T22:08:21.785Z,2.00
2018-08-24T22:10:50.771Z,2.40
2018-08-24T22:13:21.845Z,2.20
2018-08-24T22:15:51.769Z,2.27
2018-08-24T22:18:20.561Z,2.23
2018-08-24T22:20:49.453Z,2.17
2018-08-24T22:23:20.782Z,2.10
2018-08-24T22:25:49.452Z,2.10
2018-08-24T22:28:19.146Z,2.17
2018-08-24T22:30:48.200Z,2.00
2018-08-24T22:33:18.819Z,2.17
2018-08-24T22:35:47.806Z,2.03
2018-08-24T22:38:19.288Z,2.17
2018-08-24T22:40:48.089Z,1.90
2018-08-24T22:43:22.594Z,2.13
2018-08-24T22:45:51.592Z,2.27
2018-08-24T22:48:21.804Z,2.20
2018-08-24T22:50:50.784Z,1.90
2018-08-24T22:53:19.970Z,2.10
2018-08-24T22:55:52.082Z,2.10
2018-08-24T22:58:22.759Z,2.10
2018-08-24T23:00:52.052Z,2.20
2018-08-24T23:03:22.696Z,2.00
2018-08-24T23:05:53.919Z,1.80
2018-08-24T23:08:24.621Z,2.00
2018-08-24T23:10:55.841Z,1.73
2018-08-24T23:13:30.507Z,2.17
2018-08-24T23:15:59.517Z,1.93
2018-08-24T23:18:30.390Z,2.00
2018-08-24T23:21:03.560Z,1.90
2018-08-24T23:23:35.790Z,2.10
2018-08-24T23:26:04.750Z,2.13
2018-08-24T23:28:35.452Z,2.00
2018-08-24T23:31:07.560Z,1.93
2018-08-24T23:33:36.994Z,2.50
2018-08-24T23:36:06.166Z,1.87
2018-08-24T23:38:35.376Z,1.90
2018-08-24T23:41:05.864Z,1.80
2018-08-24T23:43:35.756Z,2.00
2018-08-24T23:46:04.656Z,1.67
2018-08-24T23:48:33.882Z,1.80
2018-08-24T23:51:02.831Z,2.00
2018-08-24T23:53:32.112Z,2.00
2018-08-24T23:56:01.021Z,1.80
2018-08-24T23:58:29.867Z,1.90
